Michalis K — SY7349 — position and weather

sailwx.info

Track history (hours):
 
Tides and Currents Weather Stations Pressure Air Temp Water Temp Dewpoint Dewpoint Depression Visibility Wind Speed Wind Dir Waves Ship Positions

Michalis K

Last reported at 2018-Jun-07 11:58 UTC. Time now 2018-Jun-18 00:21 UTC.
Position N 37°38' E 023°51'.
Warning: this ship's position is 10 days out of date.

Length 63 m; draft 4.9 m.

Type: Cargo ship. MMSI: 240581000.

Date/timePositionNaut miles runAvg speedWind from/ knotsBaromVisibWave heightAir tempDewpointWater temp
2018-Jun-07 11:58N 37°38' E 023°51'4 7.4
2018-Jun-07 11:22N 37°38' E 023°45'3 7.0
2018-Jun-07 11:00N 37°38' E 023°42'5 7.2
2018-Jun-07 10:15N 37°38' E 023°35'4 7.3
2018-Jun-07 09:41N 37°39' E 023°30'3 7.4
2018-Jun-07 09:15N 37°39' E 023°26'2 7.2
2018-Jun-07 08:57N 37°39' E 023°23'3 7.3
2018-Jun-07 08:30N 37°40' E 023°19'3 7.0
2018-Jun-07 08:00N 37°43' E 023°17'4 7.4
2018-Jun-07 07:30N 37°46' E 023°15'4 7.7
2018-Jun-07 07:00N 37°49' E 023°11'4 8.0
2018-Jun-07 06:30N 37°51' E 023°07'4 7.7
2018-Jun-07 06:00N 37°54' E 023°03'2 4.1
2018-Jun-07 05:30N 37°55' E 023°01'0 0.0
2018-Jun-07 05:00N 37°55' E 023°01'0 0.0
2018-Jun-07 04:30N 37°55' E 023°01'0 0.0
2018-Jun-07 04:00N 37°55' E 023°01'0 0.0
2018-Jun-07 03:30N 37°55' E 023°01'0 0.0
2018-Jun-07 03:00N 37°55' E 023°01'0 0.0
2018-Jun-07 02:30N 37°55' E 023°01'0 0.0
2018-Jun-07 02:00N 37°55' E 023°01'0 0.0
2018-Jun-07 01:30N 37°55' E 023°01'0 0.0
2018-Jun-07 01:00N 37°55' E 023°01'0 0.0
2018-Jun-07 00:30N 37°55' E 023°01'0 0.0
2018-Jun-07 00:00N 37°55' E 023°01'0 0.0
2018-Jun-06 23:30N 37°55' E 023°01'0 0.0
2018-Jun-06 23:00N 37°55' E 023°01'0 0.0
2018-Jun-06 22:30N 37°55' E 023°01'0 0.0
2018-Jun-06 22:00N 37°55' E 023°01'0 0.0
2018-Jun-06 21:30N 37°55' E 023°01'0 0.0
2018-Jun-06 21:00N 37°55' E 023°01'0 0.0
2018-Jun-06 20:30N 37°55' E 023°01'0 0.0
2018-Jun-06 20:00N 37°55' E 023°01'0 0.0
2018-Jun-06 19:30N 37°55' E 023°01'0 0.0
2018-Jun-06 19:00N 37°55' E 023°01'0 0.0
2018-Jun-06 18:30N 37°55' E 023°01'0 0.0
2018-Jun-06 18:00N 37°55' E 023°01'0 0.0
2018-Jun-06 17:30N 37°55' E 023°01'0 0.0
2018-Jun-06 17:00N 37°55' E 023°01'0 0.0
2018-Jun-06 16:30N 37°55' E 023°01'0 0.0
2018-Jun-06 16:00N 37°55' E 023°01'0 0.0
2018-Jun-06 15:30N 37°55' E 023°01'0 0.0
2018-Jun-06 15:00N 37°55' E 023°01'0 0.0
2018-Jun-06 14:30N 37°55' E 023°01'0 0.0
2018-Jun-06 14:00N 37°55' E 023°01'0 0.0
2018-Jun-06 13:30N 37°55' E 023°01'0 0.0
2018-Jun-06 13:00N 37°55' E 023°01'0 0.0
2018-Jun-06 12:30N 37°55' E 023°01'0 0.0
2018-Jun-06 12:00N 37°55' E 023°01'0 0.0
2018-Jun-06 11:30N 37°55' E 023°01'0 0.0
2018-Jun-06 11:00N 37°55' E 023°01'0 0.0
2018-Jun-06 10:30N 37°55' E 023°01'0 0.0
2018-Jun-06 09:59N 37°55' E 023°01'0 0.0
2018-Jun-06 09:29N 37°55' E 023°01'0 0.0
2018-Jun-06 09:00N 37°55' E 023°01'0 0.0
2018-Jun-06 08:30N 37°55' E 023°01'0 0.0
2018-Jun-06 08:00N 37°55' E 023°01'0 0.0
2018-Jun-06 07:30N 37°55' E 023°01'0 0.0
2018-Jun-06 07:00N 37°55' E 023°01'0 0.0
2018-Jun-06 06:30N 37°55' E 023°01'0 0.0
2018-Jun-06 06:00N 37°55' E 023°01'0 0.0
2018-Jun-06 05:30N 37°55' E 023°01'0 0.0
2018-Jun-06 05:00N 37°55' E 023°01'0 0.0
2018-Jun-06 04:27N 37°55' E 023°01'0 0.0
2018-Jun-06 04:00N 37°55' E 023°01'0 0.0
2018-Jun-06 03:30N 37°55' E 023°01'0 0.0
2018-Jun-06 03:00N 37°55' E 023°01'0 0.0
2018-Jun-06 02:30N 37°55' E 023°01'0 0.0
2018-Jun-06 02:00N 37°55' E 023°01'0 0.0
2018-Jun-06 01:30N 37°55' E 023°01'0 0.0
2018-Jun-06 01:00N 37°55' E 023°01'0 0.0
2018-Jun-06 00:30N 37°55' E 023°01'0 0.0
2018-Jun-06 00:00N 37°55' E 023°01'0 0.0
2018-Jun-05 23:30N 37°55' E 023°01'0 0.0
2018-Jun-05 22:56N 37°55' E 023°01'0 0.0
2018-Jun-05 22:29N 37°55' E 023°01'0 0.0
2018-Jun-05 21:58N 37°55' E 023°01'0 0.0
2018-Jun-05 21:16N 37°55' E 023°01'0 0.0
2018-Jun-05 20:57N 37°55' E 023°01'0 0.0
2018-Jun-05 20:29N 37°55' E 023°01'0 0.0
2018-Jun-05 20:00N 37°55' E 023°01'0 0.0
2018-Jun-05 19:30N 37°55' E 023°01'0 0.0
2018-Jun-05 19:00N 37°55' E 023°01'0 0.0
2018-Jun-05 18:29N 37°55' E 023°01'0 0.0
2018-Jun-05 17:59N 37°55' E 023°01'0 0.0
2018-Jun-05 17:30N 37°55' E 023°01'0 0.0
2018-Jun-05 17:00N 37°55' E 023°01'0 0.0
2018-Jun-05 16:30N 37°55' E 023°01'0 0.0
2018-Jun-05 16:00N 37°55' E 023°01'0 0.0
2018-Jun-05 15:30N 37°55' E 023°01'0 0.0
2018-Jun-05 15:00N 37°55' E 023°01'0 0.0
2018-Jun-05 14:30N 37°55' E 023°01'0 0.0
2018-Jun-05 14:00N 37°55' E 023°01'0 0.0
2018-Jun-05 13:30N 37°55' E 023°01'0 0.0
2018-Jun-05 13:00N 37°55' E 023°01'0 0.0
2018-Jun-05 12:30N 37°55' E 023°01'0 0.0
2018-Jun-05 12:00N 37°55' E 023°01'0 0.0
2018-Jun-05 11:30N 37°55' E 023°01'0 0.0
2018-Jun-05 11:00N 37°55' E 023°01'0 0.0
2018-Jun-05 10:30N 37°55' E 023°01'0 0.0
2018-Jun-05 10:00N 37°55' E 023°01'0 0.0
2018-Jun-05 09:30N 37°55' E 023°01'0 0.0
2018-Jun-05 09:00N 37°55' E 023°01'0 0.0
2018-Jun-05 08:30N 37°55' E 023°01'0 0.0
2018-Jun-05 08:00N 37°55' E 023°01'0 0.0
2018-Jun-05 07:30N 37°55' E 023°01'0 0.0
2018-Jun-05 07:00N 37°55' E 023°01'0 0.0
2018-Jun-05 06:30N 37°55' E 023°01'0 0.0
2018-Jun-05 06:00N 37°55' E 023°01'0 0.0
2018-Jun-05 05:30N 37°55' E 023°01'0 0.0
2018-Jun-05 05:00N 37°55' E 023°01'0 0.0
2018-Jun-05 04:30N 37°55' E 023°01'0 0.0
2018-Jun-05 04:00N 37°55' E 023°01'0 0.0
2018-Jun-05 03:30N 37°55' E 023°01'0 0.0
2018-Jun-05 03:00N 37°55' E 023°01'0 0.0
2018-Jun-05 02:30N 37°55' E 023°01'0 0.0
2018-Jun-05 02:00N 37°55' E 023°01'0 0.0
2018-Jun-05 01:30N 37°55' E 023°01'0 0.0
2018-Jun-05 01:00N 37°55' E 023°01'0 0.0
2018-Jun-05 00:30N 37°55' E 023°01'0 0.0
2018-Jun-05 00:00N 37°55' E 023°01'0 0.0
2018-Jun-04 23:30N 37°55' E 023°01'0 0.0
2018-Jun-04 23:00N 37°55' E 023°01'0 0.0
2018-Jun-04 22:30N 37°55' E 023°01'0 0.0
2018-Jun-04 22:00N 37°55' E 023°01'0 0.0
2018-Jun-04 21:30N 37°55' E 023°01'0 0.0
2018-Jun-04 21:00N 37°55' E 023°01'0 0.0
2018-Jun-04 20:30N 37°55' E 023°01'0 0.0
2018-Jun-04 20:00N 37°55' E 023°01'0 0.0
2018-Jun-04 19:30N 37°55' E 023°01'0 0.0
2018-Jun-04 19:00N 37°55' E 023°01'0 0.0
2018-Jun-04 18:30N 37°55' E 023°01'0 0.0
2018-Jun-04 18:00N 37°55' E 023°01'0 0.0
2018-Jun-04 17:30N 37°55' E 023°01'0 0.0
2018-Jun-04 17:00N 37°55' E 023°01'0 0.0
2018-Jun-04 16:30N 37°55' E 023°01'0 0.0
2018-Jun-04 16:00N 37°55' E 023°01'0 0.0
2018-Jun-04 15:30N 37°55' E 023°01'0 0.0
2018-Jun-04 15:00N 37°55' E 023°01'0 0.0
2018-Jun-04 14:30N 37°55' E 023°01'0 0.0
2018-Jun-04 14:00N 37°55' E 023°01'0 0.0
2018-Jun-04 13:30N 37°55' E 023°01'0 0.0
2018-Jun-04 13:00N 37°55' E 023°01'0 0.0
2018-Jun-04 12:30N 37°55' E 023°01'0 0.0
2018-Jun-04 12:00N 37°55' E 023°01'0 0.0
2018-Jun-04 11:30N 37°55' E 023°01'0 0.0
2018-Jun-04 11:00N 37°55' E 023°01'0 0.0
2018-Jun-04 10:30N 37°55' E 023°01'0 0.0
2018-Jun-04 10:00N 37°55' E 023°01'0 0.0
2018-Jun-04 09:30N 37°55' E 023°01'0 0.0
2018-Jun-04 09:00N 37°55' E 023°01'0 0.0
2018-Jun-04 08:30N 37°55' E 023°01'0 0.0
2018-Jun-04 08:00N 37°55' E 023°01'0 0.0
2018-Jun-04 07:30N 37°55' E 023°01'0 0.0
2018-Jun-04 07:00N 37°55' E 023°01'0 0.0
2018-Jun-04 06:30N 37°55' E 023°01'0 0.0
2018-Jun-04 06:00N 37°55' E 023°01'0 0.0
2018-Jun-04 05:30N 37°55' E 023°01'0 0.0
2018-Jun-04 05:00N 37°55' E 023°01'0 0.0
2018-Jun-04 04:30N 37°55' E 023°01'0 0.0
2018-Jun-04 04:00N 37°55' E 023°01'0 0.0
2018-Jun-04 03:30N 37°55' E 023°01'0 0.0
2018-Jun-04 03:00N 37°55' E 023°01'0 0.0
2018-Jun-04 02:29N 37°55' E 023°01'0 0.0
2018-Jun-04 02:00N 37°55' E 023°01'0 0.0
2018-Jun-04 01:30N 37°55' E 023°01'0 0.0
2018-Jun-04 01:00N 37°55' E 023°01'0 0.0
2018-Jun-04 00:30N 37°55' E 023°01'0 0.0
2018-Jun-04 00:00N 37°55' E 023°01'0 0.0
2018-Jun-03 23:30N 37°55' E 023°01'0 0.0
2018-Jun-03 23:00N 37°55' E 023°01'0 0.0
2018-Jun-03 22:30N 37°55' E 023°01'0 0.0
2018-Jun-03 22:00N 37°55' E 023°01'0 0.0
2018-Jun-03 21:30N 37°55' E 023°01'0 0.0
2018-Jun-03 21:00N 37°55' E 023°01'0 0.0
2018-Jun-03 20:30N 37°55' E 023°01'0 0.0
2018-Jun-03 19:59N 37°55' E 023°01'0 0.0
2018-Jun-03 19:30N 37°55' E 023°01'0 0.0
2018-Jun-03 19:00N 37°55' E 023°01'0 0.0
2018-Jun-03 18:30N 37°55' E 023°01'0 0.0
2018-Jun-03 18:00N 37°55' E 023°01'0 0.0
2018-Jun-03 17:30N 37°55' E 023°01'0 0.0
2018-Jun-03 17:00N 37°55' E 023°01'0 0.0
2018-Jun-03 16:30N 37°55' E 023°01'0 0.0
2018-Jun-03 16:00N 37°55' E 023°01'0 0.0
2018-Jun-03 15:30N 37°55' E 023°01'0 0.0
2018-Jun-03 15:00N 37°55' E 023°01'0 0.0
2018-Jun-03 14:30N 37°55' E 023°01'0 0.0
2018-Jun-03 13:59N 37°55' E 023°01'0 0.0
2018-Jun-03 13:30N 37°55' E 023°01'0 0.0
2018-Jun-03 13:00N 37°55' E 023°01'0 0.0
2018-Jun-03 12:30N 37°55' E 023°01'0 0.0
2018-Jun-03 12:00N 37°55' E 023°01'0 0.0
2018-Jun-03 11:30N 37°55' E 023°01'0 0.0
2018-Jun-03 11:00N 37°55' E 023°01'0 0.0
2018-Jun-03 10:30N 37°55' E 023°01'0 0.0
2018-Jun-03 10:00N 37°55' E 023°01'0 0.0
2018-Jun-03 09:30N 37°55' E 023°01'0 0.0
2018-Jun-03 09:00N 37°55' E 023°01'0 0.0
2018-Jun-03 08:30N 37°55' E 023°01'0 0.0
2018-Jun-03 08:00N 37°55' E 023°01'0 0.0
2018-Jun-03 07:30N 37°55' E 023°01'0 0.0
2018-Jun-03 07:00N 37°55' E 023°01'0 0.0
2018-Jun-03 06:30N 37°55' E 023°01'0 0.0
2018-Jun-03 06:00N 37°55' E 023°01'0 0.0
2018-Jun-03 05:30N 37°55' E 023°01'0 0.0
2018-Jun-03 05:00N 37°55' E 023°01'0 0.0
2018-Jun-03 04:30N 37°55' E 023°01'0 0.0
2018-Jun-03 04:00N 37°55' E 023°01'0 0.0
2018-Jun-03 03:30N 37°55' E 023°01'0 0.0
2018-Jun-03 03:00N 37°55' E 023°01'0 0.0
2018-Jun-03 02:30N 37°55' E 023°01'0 0.0
2018-Jun-03 02:00N 37°55' E 023°01'0 0.0
2018-Jun-03 01:30N 37°55' E 023°01'0 0.0
2018-Jun-03 01:00N 37°55' E 023°01'0 0.0
2018-Jun-03 00:30N 37°55' E 023°01'0 0.0
2018-Jun-03 00:00N 37°55' E 023°01'0 0.0
2018-Jun-02 23:31N 37°55' E 023°01'0 0.0
2018-Jun-02 23:00N 37°55' E 023°01'0 0.0
2018-Jun-02 22:30N 37°55' E 023°01'0 0.0
2018-Jun-02 22:00N 37°55' E 023°01'0 0.0
2018-Jun-02 21:30N 37°55' E 023°01'0 0.0
2018-Jun-02 21:00N 37°55' E 023°01'0 0.0
2018-Jun-02 20:30N 37°55' E 023°01'0 0.0
2018-Jun-02 20:00N 37°55' E 023°01'0 0.0
2018-Jun-02 19:30N 37°55' E 023°01'0 0.0
2018-Jun-02 19:00N 37°55' E 023°01'0 0.0
2018-Jun-02 18:30N 37°55' E 023°01'0 0.0
2018-Jun-02 18:00N 37°55' E 023°01'0 0.0
2018-Jun-02 17:30N 37°55' E 023°01'0 0.0
2018-Jun-02 17:00N 37°55' E 023°01'0 0.0
2018-Jun-02 16:30N 37°55' E 023°01'0 0.0
2018-Jun-02 16:00N 37°55' E 023°01'0 0.0
2018-Jun-02 15:30N 37°55' E 023°01'0 0.0
2018-Jun-02 15:00N 37°55' E 023°01'0 0.0
2018-Jun-02 14:30N 37°55' E 023°01'0 0.0
2018-Jun-02 14:00N 37°55' E 023°01'0 0.0
2018-Jun-02 13:30N 37°55' E 023°01'0 0.0
2018-Jun-02 13:00N 37°55' E 023°01'0 0.0
2018-Jun-02 12:30N 37°55' E 023°01'0 0.0
2018-Jun-02 12:00N 37°55' E 023°01'0 0.0
2018-Jun-02 11:30N 37°55' E 023°01'0 0.0
2018-Jun-02 11:00N 37°55' E 023°01'0 0.0
2018-Jun-02 10:30N 37°55' E 023°01'0 0.0
2018-Jun-02 10:00N 37°55' E 023°01'0 0.0
2018-Jun-02 09:30N 37°55' E 023°01'0 0.0
2018-Jun-02 09:00N 37°55' E 023°01'0 0.0
2018-Jun-02 08:30N 37°55' E 023°01'0 0.0
2018-Jun-02 08:00N 37°55' E 023°01'0 0.0
2018-Jun-02 07:30N 37°55' E 023°01'0 0.0
2018-Jun-02 07:00N 37°55' E 023°01'0 0.0
2018-Jun-02 06:30N 37°55' E 023°01'0 0.0
2018-Jun-02 06:00N 37°55' E 023°01'0 0.0
2018-Jun-02 05:30N 37°55' E 023°01'0 0.0
2018-Jun-02 05:00N 37°55' E 023°01'0 0.0
2018-Jun-02 04:30N 37°55' E 023°01'0 0.0
2018-Jun-02 04:00N 37°55' E 023°01'0 0.0
2018-Jun-02 03:30N 37°55' E 023°01'0 0.0
2018-Jun-02 03:00N 37°55' E 023°01'0 0.0
2018-Jun-02 02:30N 37°55' E 023°01'0 0.0
2018-Jun-02 02:00N 37°55' E 023°01'0 0.0
2018-Jun-02 01:30N 37°55' E 023°01'0 0.0
2018-Jun-02 01:00N 37°55' E 023°01'0 0.0
2018-Jun-02 00:30N 37°55' E 023°01'0 0.0
2018-Jun-02 00:00N 37°55' E 023°01'0 0.0
2018-Jun-01 23:30N 37°55' E 023°01'0 0.0
2018-Jun-01 23:00N 37°55' E 023°01'0 0.0
2018-Jun-01 22:30N 37°55' E 023°01'0 0.0
2018-Jun-01 22:00N 37°55' E 023°01'0 0.0
2018-Jun-01 21:30N 37°55' E 023°01'0 0.1
2018-Jun-01 21:00N 37°55' E 023°01'1 2.9
2018-Jun-01 20:30N 37°54' E 023°03'4 7.5
2018-Jun-01 20:00N 37°53' E 023°08'4 8.4
2018-Jun-01 19:30N 37°52' E 023°13'4 8.5
2018-Jun-01 19:00N 37°52' E 023°18'4 8.2
2018-Jun-01 18:30N 37°51' E 023°23'4 8.1
2018-Jun-01 18:00N 37°50' E 023°28'4 7.2
2018-Jun-01 17:30N 37°51' E 023°33'4 8.6
2018-Jun-01 17:00N 37°55' E 023°35'3 5.9
2018-Jun-01 16:30N 37°57' E 023°37'0 0.0
2018-Jun-01 16:00N 37°57' E 023°37'0 0.0
2018-Jun-01 15:30N 37°57' E 023°37'0 0.0
2018-Jun-01 15:00N 37°57' E 023°37'0 0.0
2018-Jun-01 14:30N 37°57' E 023°37'0 0.0
2018-Jun-01 14:00N 37°57' E 023°37'0 0.0
2018-Jun-01 13:30N 37°57' E 023°37'0 0.0
2018-Jun-01 13:00N 37°57' E 023°37'0 0.0
2018-Jun-01 12:30N 37°57' E 023°37'0 0.0
2018-Jun-01 12:00N 37°57' E 023°37'0 0.0
2018-Jun-01 11:30N 37°57' E 023°37'0 0.0
2018-Jun-01 11:00N 37°57' E 023°37'0 0.0
2018-Jun-01 10:30N 37°57' E 023°37'0 0.0
2018-Jun-01 10:00N 37°57' E 023°37'0 0.0
2018-Jun-01 09:30N 37°57' E 023°37'0 0.0
2018-Jun-01 09:00N 37°57' E 023°37'0 0.0
2018-Jun-01 08:30N 37°57' E 023°37'0 0.0
2018-Jun-01 07:59N 37°57' E 023°37'0 0.0
2018-Jun-01 07:30N 37°57' E 023°37'0 0.0
2018-Jun-01 07:00N 37°57' E 023°37'0 0.0
2018-Jun-01 06:30N 37°57' E 023°37'0 0.0
2018-Jun-01 06:00N 37°57' E 023°37'0 0.0
2018-Jun-01 05:30N 37°57' E 023°37'0 0.0
2018-Jun-01 05:00N 37°57' E 023°37'0 0.0
2018-Jun-01 04:30N 37°57' E 023°37'0 0.0
2018-Jun-01 04:00N 37°57' E 023°37'0 0.0
2018-Jun-01 03:30N 37°57' E 023°37'0 0.0
2018-Jun-01 03:00N 37°57' E 023°37'0 0.0
2018-Jun-01 02:30N 37°57' E 023°37'0 0.0
2018-Jun-01 02:00N 37°57' E 023°37'0 0.0
2018-Jun-01 01:30N 37°57' E 023°37'0 0.0
2018-Jun-01 01:00N 37°57' E 023°37'0 0.0
2018-Jun-01 00:30N 37°57' E 023°37'0 0.0
2018-Jun-01 00:00N 37°57' E 023°37'0 0.0
2018-May-31 23:30N 37°57' E 023°37'0 0.0
2018-May-31 23:00N 37°57' E 023°37'0 0.0
2018-May-31 22:30N 37°57' E 023°37'0 0.0
2018-May-31 22:00N 37°57' E 023°37'0 0.0
2018-May-31 21:30N 37°57' E 023°37'0 0.0
2018-May-31 21:00N 37°57' E 023°37'0 0.0
2018-May-31 20:30N 37°57' E 023°37'0 0.0
2018-May-31 20:00N 37°57' E 023°37'0 0.0
2018-May-31 19:30N 37°57' E 023°37'0 0.0
2018-May-31 19:00N 37°57' E 023°37'0 0.0
2018-May-31 18:30N 37°57' E 023°37'0 0.0
2018-May-31 18:00N 37°57' E 023°37'0 0.0
2018-May-31 17:30N 37°57' E 023°37'0 0.0
2018-May-31 17:00N 37°57' E 023°37'0 0.0
2018-May-31 16:29N 37°57' E 023°37'0 0.0
2018-May-31 16:00N 37°57' E 023°37'0 0.0
2018-May-31 15:30N 37°57' E 023°37'0 0.0
2018-May-31 15:00N 37°57' E 023°37'0 0.0
2018-May-31 14:30N 37°57' E 023°37'0 0.0
2018-May-31 14:00N 37°57' E 023°37'0 0.0
2018-May-31 13:30N 37°57' E 023°37'0 0.0
2018-May-31 13:00N 37°57' E 023°37'0 0.0
2018-May-31 12:30N 37°57' E 023°37'2 3.3
2018-May-31 12:00N 37°56' E 023°36'3 6.3
2018-May-31 11:30N 37°53' E 023°37'4 8.0
2018-May-31 11:00N 37°49' E 023°40'  
Track history (hours):
 
Tides and Currents Weather Stations Pressure Air Temp Water Temp Dewpoint Dewpoint Depression Visibility Wind Speed Wind Dir Waves Ship Positions

Michalis K

Last reported at 2018-Jun-07 11:58 UTC. Time now 2018-Jun-18 00:21 UTC.
Position N 37°38' E 023°51'.
Warning: this ship's position is 10 days out of date.

Length 63 m; draft 4.9 m.

Type: Cargo ship. MMSI: 240581000.

Date/timePositionNaut miles runAvg speedWind from/ knotsBaromVisibWave heightAir tempDewpointWater temp
2018-Jun-07 11:58N 37°38' E 023°51'4 7.4
2018-Jun-07 11:22N 37°38' E 023°45'3 7.0
2018-Jun-07 11:00N 37°38' E 023°42'5 7.2
2018-Jun-07 10:15N 37°38' E 023°35'4 7.3
2018-Jun-07 09:41N 37°39' E 023°30'3 7.4
2018-Jun-07 09:15N 37°39' E 023°26'2 7.2
2018-Jun-07 08:57N 37°39' E 023°23'3 7.3
2018-Jun-07 08:30N 37°40' E 023°19'3 7.0
2018-Jun-07 08:00N 37°43' E 023°17'4 7.4
2018-Jun-07 07:30N 37°46' E 023°15'4 7.7
2018-Jun-07 07:00N 37°49' E 023°11'4 8.0
2018-Jun-07 06:30N 37°51' E 023°07'4 7.7
2018-Jun-07 06:00N 37°54' E 023°03'2 4.1
2018-Jun-07 05:30N 37°55' E 023°01'0 0.0
2018-Jun-07 05:00N 37°55' E 023°01'0 0.0
2018-Jun-07 04:30N 37°55' E 023°01'0 0.0
2018-Jun-07 04:00N 37°55' E 023°01'0 0.0
2018-Jun-07 03:30N 37°55' E 023°01'0 0.0
2018-Jun-07 03:00N 37°55' E 023°01'0 0.0
2018-Jun-07 02:30N 37°55' E 023°01'0 0.0
2018-Jun-07 02:00N 37°55' E 023°01'0 0.0
2018-Jun-07 01:30N 37°55' E 023°01'0 0.0
2018-Jun-07 01:00N 37°55' E 023°01'0 0.0
2018-Jun-07 00:30N 37°55' E 023°01'0 0.0
2018-Jun-07 00:00N 37°55' E 023°01'0 0.0
2018-Jun-06 23:30N 37°55' E 023°01'0 0.0
2018-Jun-06 23:00N 37°55' E 023°01'0 0.0
2018-Jun-06 22:30N 37°55' E 023°01'0 0.0
2018-Jun-06 22:00N 37°55' E 023°01'0 0.0
2018-Jun-06 21:30N 37°55' E 023°01'0 0.0
2018-Jun-06 21:00N 37°55' E 023°01'0 0.0
2018-Jun-06 20:30N 37°55' E 023°01'0 0.0
2018-Jun-06 20:00N 37°55' E 023°01'0 0.0
2018-Jun-06 19:30N 37°55' E 023°01'0 0.0
2018-Jun-06 19:00N 37°55' E 023°01'0 0.0
2018-Jun-06 18:30N 37°55' E 023°01'0 0.0
2018-Jun-06 18:00N 37°55' E 023°01'0 0.0
2018-Jun-06 17:30N 37°55' E 023°01'0 0.0
2018-Jun-06 17:00N 37°55' E 023°01'0 0.0
2018-Jun-06 16:30N 37°55' E 023°01'0 0.0
2018-Jun-06 16:00N 37°55' E 023°01'0 0.0
2018-Jun-06 15:30N 37°55' E 023°01'0 0.0
2018-Jun-06 15:00N 37°55' E 023°01'0 0.0
2018-Jun-06 14:30N 37°55' E 023°01'0 0.0
2018-Jun-06 14:00N 37°55' E 023°01'0 0.0
2018-Jun-06 13:30N 37°55' E 023°01'0 0.0
2018-Jun-06 13:00N 37°55' E 023°01'0 0.0
2018-Jun-06 12:30N 37°55' E 023°01'0 0.0
2018-Jun-06 12:00N 37°55' E 023°01'0 0.0
2018-Jun-06 11:30N 37°55' E 023°01'0 0.0
2018-Jun-06 11:00N 37°55' E 023°01'0 0.0
2018-Jun-06 10:30N 37°55' E 023°01'0 0.0
2018-Jun-06 09:59N 37°55' E 023°01'0 0.0
2018-Jun-06 09:29N 37°55' E 023°01'0 0.0
2018-Jun-06 09:00N 37°55' E 023°01'0 0.0
2018-Jun-06 08:30N 37°55' E 023°01'0 0.0
2018-Jun-06 08:00N 37°55' E 023°01'0 0.0
2018-Jun-06 07:30N 37°55' E 023°01'0 0.0
2018-Jun-06 07:00N 37°55' E 023°01'0 0.0
2018-Jun-06 06:30N 37°55' E 023°01'0 0.0
2018-Jun-06 06:00N 37°55' E 023°01'0 0.0
2018-Jun-06 05:30N 37°55' E 023°01'0 0.0
2018-Jun-06 05:00N 37°55' E 023°01'0 0.0
2018-Jun-06 04:27N 37°55' E 023°01'0 0.0
2018-Jun-06 04:00N 37°55' E 023°01'0 0.0
2018-Jun-06 03:30N 37°55' E 023°01'0 0.0
2018-Jun-06 03:00N 37°55' E 023°01'0 0.0
2018-Jun-06 02:30N 37°55' E 023°01'0 0.0
2018-Jun-06 02:00N 37°55' E 023°01'0 0.0
2018-Jun-06 01:30N 37°55' E 023°01'0 0.0
2018-Jun-06 01:00N 37°55' E 023°01'0 0.0
2018-Jun-06 00:30N 37°55' E 023°01'0 0.0
2018-Jun-06 00:00N 37°55' E 023°01'0 0.0
2018-Jun-05 23:30N 37°55' E 023°01'0 0.0
2018-Jun-05 22:56N 37°55' E 023°01'0 0.0
2018-Jun-05 22:29N 37°55' E 023°01'0 0.0
2018-Jun-05 21:58N 37°55' E 023°01'0 0.0
2018-Jun-05 21:16N 37°55' E 023°01'0 0.0
2018-Jun-05 20:57N 37°55' E 023°01'0 0.0
2018-Jun-05 20:29N 37°55' E 023°01'0 0.0
2018-Jun-05 20:00N 37°55' E 023°01'0 0.0
2018-Jun-05 19:30N 37°55' E 023°01'0 0.0
2018-Jun-05 19:00N 37°55' E 023°01'0 0.0
2018-Jun-05 18:29N 37°55' E 023°01'0 0.0
2018-Jun-05 17:59N 37°55' E 023°01'0 0.0
2018-Jun-05 17:30N 37°55' E 023°01'0 0.0
2018-Jun-05 17:00N 37°55' E 023°01'0 0.0
2018-Jun-05 16:30N 37°55' E 023°01'0 0.0
2018-Jun-05 16:00N 37°55' E 023°01'0 0.0
2018-Jun-05 15:30N 37°55' E 023°01'0 0.0
2018-Jun-05 15:00N 37°55' E 023°01'0 0.0
2018-Jun-05 14:30N 37°55' E 023°01'0 0.0
2018-Jun-05 14:00N 37°55' E 023°01'0 0.0
2018-Jun-05 13:30N 37°55' E 023°01'0 0.0
2018-Jun-05 13:00N 37°55' E 023°01'0 0.0
2018-Jun-05 12:30N 37°55' E 023°01'0 0.0
2018-Jun-05 12:00N 37°55' E 023°01'0 0.0
2018-Jun-05 11:30N 37°55' E 023°01'0 0.0
2018-Jun-05 11:00N 37°55' E 023°01'0 0.0
2018-Jun-05 10:30N 37°55' E 023°01'0 0.0
2018-Jun-05 10:00N 37°55' E 023°01'0 0.0
2018-Jun-05 09:30N 37°55' E 023°01'0 0.0
2018-Jun-05 09:00N 37°55' E 023°01'0 0.0
2018-Jun-05 08:30N 37°55' E 023°01'0 0.0
2018-Jun-05 08:00N 37°55' E 023°01'0 0.0
2018-Jun-05 07:30N 37°55' E 023°01'0 0.0
2018-Jun-05 07:00N 37°55' E 023°01'0 0.0
2018-Jun-05 06:30N 37°55' E 023°01'0 0.0
2018-Jun-05 06:00N 37°55' E 023°01'0 0.0
2018-Jun-05 05:30N 37°55' E 023°01'0 0.0
2018-Jun-05 05:00N 37°55' E 023°01'0 0.0
2018-Jun-05 04:30N 37°55' E 023°01'0 0.0
2018-Jun-05 04:00N 37°55' E 023°01'0 0.0
2018-Jun-05 03:30N 37°55' E 023°01'0 0.0
2018-Jun-05 03:00N 37°55' E 023°01'0 0.0
2018-Jun-05 02:30N 37°55' E 023°01'0 0.0
2018-Jun-05 02:00N 37°55' E 023°01'0 0.0
2018-Jun-05 01:30N 37°55' E 023°01'0 0.0
2018-Jun-05 01:00N 37°55' E 023°01'0 0.0
2018-Jun-05 00:30N 37°55' E 023°01'0 0.0
2018-Jun-05 00:00N 37°55' E 023°01'0 0.0
2018-Jun-04 23:30N 37°55' E 023°01'0 0.0
2018-Jun-04 23:00N 37°55' E 023°01'0 0.0
2018-Jun-04 22:30N 37°55' E 023°01'0 0.0
2018-Jun-04 22:00N 37°55' E 023°01'0 0.0
2018-Jun-04 21:30N 37°55' E 023°01'0 0.0
2018-Jun-04 21:00N 37°55' E 023°01'0 0.0
2018-Jun-04 20:30N 37°55' E 023°01'0 0.0
2018-Jun-04 20:00N 37°55' E 023°01'0 0.0
2018-Jun-04 19:30N 37°55' E 023°01'0 0.0
2018-Jun-04 19:00N 37°55' E 023°01'0 0.0
2018-Jun-04 18:30N 37°55' E 023°01'0 0.0
2018-Jun-04 18:00N 37°55' E 023°01'0 0.0
2018-Jun-04 17:30N 37°55' E 023°01'0 0.0
2018-Jun-04 17:00N 37°55' E 023°01'0 0.0
2018-Jun-04 16:30N 37°55' E 023°01'0 0.0
2018-Jun-04 16:00N 37°55' E 023°01'0 0.0
2018-Jun-04 15:30N 37°55' E 023°01'0 0.0
2018-Jun-04 15:00N 37°55' E 023°01'0 0.0
2018-Jun-04 14:30N 37°55' E 023°01'0 0.0
2018-Jun-04 14:00N 37°55' E 023°01'0 0.0
2018-Jun-04 13:30N 37°55' E 023°01'0 0.0
2018-Jun-04 13:00N 37°55' E 023°01'0 0.0
2018-Jun-04 12:30N 37°55' E 023°01'0 0.0
2018-Jun-04 12:00N 37°55' E 023°01'0 0.0
2018-Jun-04 11:30N 37°55' E 023°01'0 0.0
2018-Jun-04 11:00N 37°55' E 023°01'0 0.0
2018-Jun-04 10:30N 37°55' E 023°01'0 0.0
2018-Jun-04 10:00N 37°55' E 023°01'0 0.0
2018-Jun-04 09:30N 37°55' E 023°01'0 0.0
2018-Jun-04 09:00N 37°55' E 023°01'0 0.0
2018-Jun-04 08:30N 37°55' E 023°01'0 0.0
2018-Jun-04 08:00N 37°55' E 023°01'0 0.0
2018-Jun-04 07:30N 37°55' E 023°01'0 0.0
2018-Jun-04 07:00N 37°55' E 023°01'0 0.0
2018-Jun-04 06:30N 37°55' E 023°01'0 0.0
2018-Jun-04 06:00N 37°55' E 023°01'0 0.0
2018-Jun-04 05:30N 37°55' E 023°01'0 0.0
2018-Jun-04 05:00N 37°55' E 023°01'0 0.0
2018-Jun-04 04:30N 37°55' E 023°01'0 0.0
2018-Jun-04 04:00N 37°55' E 023°01'0 0.0
2018-Jun-04 03:30N 37°55' E 023°01'0 0.0
2018-Jun-04 03:00N 37°55' E 023°01'0 0.0
2018-Jun-04 02:29N 37°55' E 023°01'0 0.0
2018-Jun-04 02:00N 37°55' E 023°01'0 0.0
2018-Jun-04 01:30N 37°55' E 023°01'0 0.0
2018-Jun-04 01:00N 37°55' E 023°01'0 0.0
2018-Jun-04 00:30N 37°55' E 023°01'0 0.0
2018-Jun-04 00:00N 37°55' E 023°01'0 0.0
2018-Jun-03 23:30N 37°55' E 023°01'0 0.0
2018-Jun-03 23:00N 37°55' E 023°01'0 0.0
2018-Jun-03 22:30N 37°55' E 023°01'0 0.0
2018-Jun-03 22:00N 37°55' E 023°01'0 0.0
2018-Jun-03 21:30N 37°55' E 023°01'0 0.0
2018-Jun-03 21:00N 37°55' E 023°01'0 0.0
2018-Jun-03 20:30N 37°55' E 023°01'0 0.0
2018-Jun-03 19:59N 37°55' E 023°01'0 0.0
2018-Jun-03 19:30N 37°55' E 023°01'0 0.0
2018-Jun-03 19:00N 37°55' E 023°01'0 0.0
2018-Jun-03 18:30N 37°55' E 023°01'0 0.0
2018-Jun-03 18:00N 37°55' E 023°01'0 0.0
2018-Jun-03 17:30N 37°55' E 023°01'0 0.0
2018-Jun-03 17:00N 37°55' E 023°01'0 0.0
2018-Jun-03 16:30N 37°55' E 023°01'0 0.0
2018-Jun-03 16:00N 37°55' E 023°01'0 0.0
2018-Jun-03 15:30N 37°55' E 023°01'0 0.0
2018-Jun-03 15:00N 37°55' E 023°01'0 0.0
2018-Jun-03 14:30N 37°55' E 023°01'0 0.0
2018-Jun-03 13:59N 37°55' E 023°01'0 0.0
2018-Jun-03 13:30N 37°55' E 023°01'0 0.0
2018-Jun-03 13:00N 37°55' E 023°01'0 0.0
2018-Jun-03 12:30N 37°55' E 023°01'0 0.0
2018-Jun-03 12:00N 37°55' E 023°01'0 0.0
2018-Jun-03 11:30N 37°55' E 023°01'0 0.0
2018-Jun-03 11:00N 37°55' E 023°01'0 0.0
2018-Jun-03 10:30N 37°55' E 023°01'0 0.0
2018-Jun-03 10:00N 37°55' E 023°01'0 0.0
2018-Jun-03 09:30N 37°55' E 023°01'0 0.0
2018-Jun-03 09:00N 37°55' E 023°01'0 0.0
2018-Jun-03 08:30N 37°55' E 023°01'0 0.0
2018-Jun-03 08:00N 37°55' E 023°01'0 0.0
2018-Jun-03 07:30N 37°55' E 023°01'0 0.0
2018-Jun-03 07:00N 37°55' E 023°01'0 0.0
2018-Jun-03 06:30N 37°55' E 023°01'0 0.0
2018-Jun-03 06:00N 37°55' E 023°01'0 0.0
2018-Jun-03 05:30N 37°55' E 023°01'0 0.0
2018-Jun-03 05:00N 37°55' E 023°01'0 0.0
2018-Jun-03 04:30N 37°55' E 023°01'0 0.0
2018-Jun-03 04:00N 37°55' E 023°01'0 0.0
2018-Jun-03 03:30N 37°55' E 023°01'0 0.0
2018-Jun-03 03:00N 37°55' E 023°01'0 0.0
2018-Jun-03 02:30N 37°55' E 023°01'0 0.0
2018-Jun-03 02:00N 37°55' E 023°01'0 0.0
2018-Jun-03 01:30N 37°55' E 023°01'0 0.0
2018-Jun-03 01:00N 37°55' E 023°01'0 0.0
2018-Jun-03 00:30N 37°55' E 023°01'0 0.0
2018-Jun-03 00:00N 37°55' E 023°01'0 0.0
2018-Jun-02 23:31N 37°55' E 023°01'0 0.0
2018-Jun-02 23:00N 37°55' E 023°01'0 0.0
2018-Jun-02 22:30N 37°55' E 023°01'0 0.0
2018-Jun-02 22:00N 37°55' E 023°01'0 0.0
2018-Jun-02 21:30N 37°55' E 023°01'0 0.0
2018-Jun-02 21:00N 37°55' E 023°01'0 0.0
2018-Jun-02 20:30N 37°55' E 023°01'0 0.0
2018-Jun-02 20:00N 37°55' E 023°01'0 0.0
2018-Jun-02 19:30N 37°55' E 023°01'0 0.0
2018-Jun-02 19:00N 37°55' E 023°01'0 0.0
2018-Jun-02 18:30N 37°55' E 023°01'0 0.0
2018-Jun-02 18:00N 37°55' E 023°01'0 0.0
2018-Jun-02 17:30N 37°55' E 023°01'0 0.0
2018-Jun-02 17:00N 37°55' E 023°01'0 0.0
2018-Jun-02 16:30N 37°55' E 023°01'0 0.0
2018-Jun-02 16:00N 37°55' E 023°01'0 0.0
2018-Jun-02 15:30N 37°55' E 023°01'0 0.0
2018-Jun-02 15:00N 37°55' E 023°01'0 0.0
2018-Jun-02 14:30N 37°55' E 023°01'0 0.0
2018-Jun-02 14:00N 37°55' E 023°01'0 0.0
2018-Jun-02 13:30N 37°55' E 023°01'0 0.0
2018-Jun-02 13:00N 37°55' E 023°01'0 0.0
2018-Jun-02 12:30N 37°55' E 023°01'0 0.0
2018-Jun-02 12:00N 37°55' E 023°01'0 0.0
2018-Jun-02 11:30N 37°55' E 023°01'0 0.0
2018-Jun-02 11:00N 37°55' E 023°01'0 0.0
2018-Jun-02 10:30N 37°55' E 023°01'0 0.0
2018-Jun-02 10:00N 37°55' E 023°01'0 0.0
2018-Jun-02 09:30N 37°55' E 023°01'0 0.0
2018-Jun-02 09:00N 37°55' E 023°01'0 0.0
2018-Jun-02 08:30N 37°55' E 023°01'0 0.0
2018-Jun-02 08:00N 37°55' E 023°01'0 0.0
2018-Jun-02 07:30N 37°55' E 023°01'0 0.0
2018-Jun-02 07:00N 37°55' E 023°01'0 0.0
2018-Jun-02 06:30N 37°55' E 023°01'0 0.0
2018-Jun-02 06:00N 37°55' E 023°01'0 0.0
2018-Jun-02 05:30N 37°55' E 023°01'0 0.0
2018-Jun-02 05:00N 37°55' E 023°01'0 0.0
2018-Jun-02 04:30N 37°55' E 023°01'0 0.0
2018-Jun-02 04:00N 37°55' E 023°01'0 0.0
2018-Jun-02 03:30N 37°55' E 023°01'0 0.0
2018-Jun-02 03:00N 37°55' E 023°01'0 0.0
2018-Jun-02 02:30N 37°55' E 023°01'0 0.0
2018-Jun-02 02:00N 37°55' E 023°01'0 0.0
2018-Jun-02 01:30N 37°55' E 023°01'0 0.0
2018-Jun-02 01:00N 37°55' E 023°01'0 0.0
2018-Jun-02 00:30N 37°55' E 023°01'0 0.0
2018-Jun-02 00:00N 37°55' E 023°01'0 0.0
2018-Jun-01 23:30N 37°55' E 023°01'0 0.0
2018-Jun-01 23:00N 37°55' E 023°01'0 0.0
2018-Jun-01 22:30N 37°55' E 023°01'0 0.0
2018-Jun-01 22:00N 37°55' E 023°01'0 0.0
2018-Jun-01 21:30N 37°55' E 023°01'0 0.1
2018-Jun-01 21:00N 37°55' E 023°01'1 2.9
2018-Jun-01 20:30N 37°54' E 023°03'4 7.5
2018-Jun-01 20:00N 37°53' E 023°08'4 8.4
2018-Jun-01 19:30N 37°52' E 023°13'4 8.5
2018-Jun-01 19:00N 37°52' E 023°18'4 8.2
2018-Jun-01 18:30N 37°51' E 023°23'4 8.1
2018-Jun-01 18:00N 37°50' E 023°28'4 7.2
2018-Jun-01 17:30N 37°51' E 023°33'4 8.6
2018-Jun-01 17:00N 37°55' E 023°35'3 5.9
2018-Jun-01 16:30N 37°57' E 023°37'0 0.0
2018-Jun-01 16:00N 37°57' E 023°37'0 0.0
2018-Jun-01 15:30N 37°57' E 023°37'0 0.0
2018-Jun-01 15:00N 37°57' E 023°37'0 0.0
2018-Jun-01 14:30N 37°57' E 023°37'0 0.0
2018-Jun-01 14:00N 37°57' E 023°37'0 0.0
2018-Jun-01 13:30N 37°57' E 023°37'0 0.0
2018-Jun-01 13:00N 37°57' E 023°37'0 0.0
2018-Jun-01 12:30N 37°57' E 023°37'0 0.0
2018-Jun-01 12:00N 37°57' E 023°37'0 0.0
2018-Jun-01 11:30N 37°57' E 023°37'0 0.0
2018-Jun-01 11:00N 37°57' E 023°37'0 0.0
2018-Jun-01 10:30N 37°57' E 023°37'0 0.0
2018-Jun-01 10:00N 37°57' E 023°37'0 0.0
2018-Jun-01 09:30N 37°57' E 023°37'0 0.0
2018-Jun-01 09:00N 37°57' E 023°37'0 0.0
2018-Jun-01 08:30N 37°57' E 023°37'0 0.0
2018-Jun-01 07:59N 37°57' E 023°37'0 0.0
2018-Jun-01 07:30N 37°57' E 023°37'0 0.0
2018-Jun-01 07:00N 37°57' E 023°37'0 0.0
2018-Jun-01 06:30N 37°57' E 023°37'0 0.0
2018-Jun-01 06:00N 37°57' E 023°37'0 0.0
2018-Jun-01 05:30N 37°57' E 023°37'0 0.0
2018-Jun-01 05:00N 37°57' E 023°37'0 0.0
2018-Jun-01 04:30N 37°57' E 023°37'0 0.0
2018-Jun-01 04:00N 37°57' E 023°37'0 0.0
2018-Jun-01 03:30N 37°57' E 023°37'0 0.0
2018-Jun-01 03:00N 37°57' E 023°37'0 0.0
2018-Jun-01 02:30N 37°57' E 023°37'0 0.0
2018-Jun-01 02:00N 37°57' E 023°37'0 0.0
2018-Jun-01 01:30N 37°57' E 023°37'0 0.0
2018-Jun-01 01:00N 37°57' E 023°37'0 0.0
2018-Jun-01 00:30N 37°57' E 023°37'0 0.0
2018-Jun-01 00:00N 37°57' E 023°37'0 0.0
2018-May-31 23:30N 37°57' E 023°37'0 0.0
2018-May-31 23:00N 37°57' E 023°37'0 0.0
2018-May-31 22:30N 37°57' E 023°37'0 0.0
2018-May-31 22:00N 37°57' E 023°37'0 0.0
2018-May-31 21:30N 37°57' E 023°37'0 0.0
2018-May-31 21:00N 37°57' E 023°37'0 0.0
2018-May-31 20:30N 37°57' E 023°37'0 0.0
2018-May-31 20:00N 37°57' E 023°37'0 0.0
2018-May-31 19:30N 37°57' E 023°37'0 0.0
2018-May-31 19:00N 37°57' E 023°37'0 0.0
2018-May-31 18:30N 37°57' E 023°37'0 0.0
2018-May-31 18:00N 37°57' E 023°37'0 0.0
2018-May-31 17:30N 37°57' E 023°37'0 0.0
2018-May-31 17:00N 37°57' E 023°37'0 0.0
2018-May-31 16:29N 37°57' E 023°37'0 0.0
2018-May-31 16:00N 37°57' E 023°37'0 0.0
2018-May-31 15:30N 37°57' E 023°37'0 0.0
2018-May-31 15:00N 37°57' E 023°37'0 0.0
2018-May-31 14:30N 37°57' E 023°37'0 0.0
2018-May-31 14:00N 37°57' E 023°37'0 0.0
2018-May-31 13:30N 37°57' E 023°37'0 0.0
2018-May-31 13:00N 37°57' E 023°37'0 0.0
2018-May-31 12:30N 37°57' E 023°37'2 3.3
2018-May-31 12:00N 37°56' E 023°36'3 6.3
2018-May-31 11:30N 37°53' E 023°37'4 8.0
2018-May-31 11:00N 37°49' E 023°40'  

Dump ship's entire track history